Airfield :
LOGIN :

Register | Disclaimer

   EN    FR    IT 

 










Legend :    VFR   Marginal VFR   IFR   Intensive IFR   Very Intensive IFR
Visi :
Ceiling :
>= 8 km
>= 3000ft
5 to 8 km
1000 to 3000 ft
1500m to 5 km
500 to 1000 ft
800 to 1500m
200 to 500 ft
< 800m
< 200 ft
Symbols :   Thunderstorms  Fog  Heavy snow  Heavy precipitations  Wind > 20 kt
SIGMETs :     Misc.  Thunderstorms  Icing  Turbulence  Mountain Waves  Volcanic Ashes






- Airport Elevation : 489 ft
- IATA code : GDN


EPGD - Gdansk

CURRENT METAR :
  • 300730Z 25009KT 9999 SCT013 09/06 Q1014

EXPIRED METARs :
  • 300700Z 25008KT 9999 SCT014 08/06 Q1013
  • 300630Z 25011KT 9999 BKN011 08/06 Q1013
  • 300600Z 26008KT 9999 BKN014 07/06 Q1013
  • 300530Z 24009KT 230V310 9999 BKN011 07/06 Q1013

TAF TAF EPGD
Valid from the 30 at 06:00 until the 31 at 06:00 UTC


300530Z 3006/3106 24010KT 9999 SCT035
PROB40 3006/3009 BKN013
BECMG 3014/3016 VRB02KT
BECMG 3016/3018 4000 BR BKN005
PROB40 3021/3106 0600 FG OVC001



MET'MAP, your aeronautical weather chart ! - Copyright ORBIFLY December 2007 - Disclaimer

ORBIFLY MET'MAP TEAM :

Programming & Development : Alexandra Zaïnal
Concept & original design : Baudouin d'Aumeries
Assistance for programming : Marc-Olivier Méhu
Technical & hardware support : Manuel Goepfert

Contact : metmap@orbifly.com




SOURCES & CREDITS :

   NOAA